Ethridge, Tennessee
Current Conditions -  °F | °C
As of 9:53 AM on Monday 24 Nov 2014 (Local Time) from KMSL Reporting Station
Scattered Clouds Scattered Clouds  
Wind Chill: 16°   Ceiling: Unl
Heat Index: 16°   Visibility: 10mi
Dew Point:   Wind: 15mph
Humidity: 57%   Direction: 280°W
Pressure: 29.83"   Gusts: 26mph
Location:  35.32°N, 87.3°W
Report Text: KMSL 241553Z AUTO 28013G23KT 10SM SCT032 16/07 A2983 RMK AO2 PK WND 25027/1501 SLP097 T01560072
Loading
Personal Weather Stations






























Interactive Weather Map New forecast layout! Learn more

10-Day Weather Forecast

Advertisements
Track Severe Weather on mobile